Wes Sellars — WDF9302 — position and weather

sailwx.info

Track history (hours):
 
Tides and Currents Weather Stations Pressure Air Temp Water Temp Dewpoint Dewpoint Depression Visibility Wind Speed Wind Dir Waves Ship Positions

Wes Sellars

Owner: Florida Marine, LLC, Mandeville, LA. More information available from US FCC via Universal Licensing System and Coast Guard Vessel Documentation Center.

Last reported at 2014-Dec-19 01:33 UTC. Time now 2014-Dec-19 13:00 UTC.
Position N 29°46' W 095°07'.

Length 27 m.

Type: Towing. MMSI: 367503760.

Date/timePositionNaut miles runAvg speedWind from/ knotsBaromVisibWave heightAir tempDewpointWater temp
2014-Dec-19 01:33N 29°46' W 095°07'2 1.8
2014-Dec-19 00:33N 29°46' W 095°05'1 0.8
2014-Dec-18 23:12N 29°47' W 095°04'0 0.0
2014-Dec-18 22:31N 29°47' W 095°04'0 0.0
2014-Dec-18 21:33N 29°47' W 095°04'3 2.7
2014-Dec-18 20:29N 29°46' W 095°07'0 0.0
2014-Dec-18 18:32N 29°46' W 095°07'0 0.1
2014-Dec-18 16:18N 29°46' W 095°07'0 0.0
2014-Dec-18 15:33N 29°46' W 095°07'0 0.0
2014-Dec-18 14:33N 29°46' W 095°07'0 0.0
2014-Dec-18 01:32N 29°46' W 095°07'0 0.0
2014-Dec-17 22:29N 29°46' W 095°07'0 0.0
2014-Dec-17 18:32N 29°46' W 095°07'3 3.1
2014-Dec-17 17:33N 29°47' W 095°04'3 2.8
2014-Dec-17 16:32N 29°46' W 095°06'1 0.5
2014-Dec-17 15:33N 29°46' W 095°07'0 0.0
2014-Dec-17 14:33N 29°46' W 095°07'0 0.5
2014-Dec-17 13:32N 29°46' W 095°06'0 0.0
2014-Dec-17 09:22N 29°46' W 095°06'0 0.0
2014-Dec-17 07:33N 29°46' W 095°06'1 0.5
2014-Dec-17 06:27N 29°45' W 095°06'2 1.2
2014-Dec-17 04:33N 29°47' W 095°04'1 0.8
2014-Dec-17 03:33N 29°47' W 095°05'6 5.6
2014-Dec-17 02:32N 29°45' W 095°11'1 0.2
2014-Dec-16 20:09N 29°44' W 095°12'0 0.1
2014-Dec-16 19:33N 29°44' W 095°12'0 0.0
2014-Dec-16 18:33N 29°44' W 095°12'0 0.0
2014-Dec-16 17:33N 29°44' W 095°12'0 0.1
2014-Dec-16 16:33N 29°44' W 095°12'0 0.0
2014-Dec-16 15:33N 29°44' W 095°12'0 0.0
2014-Dec-16 14:33N 29°44' W 095°12'0 0.1
2014-Dec-16 13:33N 29°44' W 095°12'0 0.0
2014-Dec-16 12:33N 29°44' W 095°12'0 0.0
2014-Dec-16 11:33N 29°44' W 095°12'0 0.0
2014-Dec-16 10:33N 29°44' W 095°12'0 0.0
2014-Dec-16 09:33N 29°44' W 095°12'0 0.0
2014-Dec-16 08:33N 29°44' W 095°12'0 0.0
2014-Dec-16 07:33N 29°44' W 095°12'0 0.0
2014-Dec-16 06:33N 29°44' W 095°12'0 0.0
2014-Dec-16 05:33N 29°44' W 095°12'0 0.0
2014-Dec-16 04:33N 29°44' W 095°12'0 0.0
2014-Dec-16 03:33N 29°44' W 095°12'0 0.0
2014-Dec-16 02:33N 29°44' W 095°12'0 0.0
2014-Dec-16 01:33N 29°44' W 095°12'0 0.0
2014-Dec-16 00:32N 29°44' W 095°12'0 0.0
2014-Dec-15 23:33N 29°44' W 095°12'0 0.0
2014-Dec-15 22:33N 29°44' W 095°12'0 0.0
2014-Dec-15 21:33N 29°44' W 095°12'0 0.0
2014-Dec-15 20:33N 29°44' W 095°12'0 0.0
2014-Dec-15 19:33N 29°44' W 095°12'0 0.0
2014-Dec-15 18:33N 29°44' W 095°12'0 0.0
2014-Dec-15 17:33N 29°44' W 095°12'0 0.0
2014-Dec-15 16:33N 29°44' W 095°12'0 0.0
2014-Dec-15 15:33N 29°44' W 095°12'0 0.0
2014-Dec-15 14:33N 29°44' W 095°12'0 0.0
2014-Dec-13 17:33N 29°44' W 095°12'0 0.0
2014-Dec-13 16:33N 29°44' W 095°12'0 0.0
2014-Dec-13 15:33N 29°44' W 095°12'3 3.2
2014-Dec-13 14:33N 29°44' W 095°08'5 5.0
2014-Dec-13 13:33N 29°47' W 095°04'0 0.2
2014-Dec-13 12:33N 29°47' W 095°04'0 0.3
2014-Dec-13 11:33N 29°47' W 095°04'2 2.0
2014-Dec-13 10:33N 29°46' W 095°06'0 0.0
2014-Dec-13 09:33N 29°46' W 095°06'0 0.0
2014-Dec-13 08:33N 29°46' W 095°06'0 0.0
2014-Dec-13 07:33N 29°46' W 095°06'0 0.0
2014-Dec-13 06:33N 29°46' W 095°06'0 0.0
2014-Dec-13 05:33N 29°46' W 095°06'0 0.0
2014-Dec-13 04:33N 29°46' W 095°06'0 0.0
2014-Dec-13 03:33N 29°46' W 095°06'0 0.0
2014-Dec-13 02:33N 29°46' W 095°06'0 0.0
2014-Dec-13 01:33N 29°46' W 095°06'0 0.0
2014-Dec-13 00:33N 29°46' W 095°06'0 0.0
2014-Dec-12 23:33N 29°46' W 095°06'0 0.0
2014-Dec-12 22:33N 29°46' W 095°06'0 0.0
2014-Dec-12 21:33N 29°46' W 095°06'0 0.0
2014-Dec-12 20:33N 29°46' W 095°06'0 0.0
2014-Dec-12 19:33N 29°46' W 095°06'0 0.0
2014-Dec-12 18:33N 29°46' W 095°06'0 0.0
2014-Dec-12 17:33N 29°46' W 095°06'0 0.0
2014-Dec-12 16:33N 29°46' W 095°06'0 0.0
2014-Dec-12 15:33N 29°46' W 095°06'0 0.0
2014-Dec-12 14:33N 29°46' W 095°06'0 0.0
2014-Dec-12 13:33N 29°46' W 095°06'0 0.0
2014-Dec-12 12:33N 29°46' W 095°06'0 0.0
2014-Dec-12 11:33N 29°46' W 095°06'0 0.0
2014-Dec-12 10:33N 29°46' W 095°06'0 0.0
2014-Dec-12 09:33N 29°46' W 095°06'0 0.0
2014-Dec-12 08:33N 29°46' W 095°06'0 0.0
2014-Dec-12 07:33N 29°46' W 095°06'0 0.0
2014-Dec-12 06:33N 29°46' W 095°06'0 0.0
2014-Dec-12 05:33N 29°46' W 095°06'0 0.0
2014-Dec-12 04:33N 29°46' W 095°06'0 0.0
2014-Dec-12 03:33N 29°46' W 095°06'0 0.0
2014-Dec-12 02:33N 29°46' W 095°06'0 0.0
2014-Dec-12 01:33N 29°46' W 095°06'0 0.0
2014-Dec-12 00:33N 29°46' W 095°06'0 0.0
2014-Dec-11 23:33N 29°46' W 095°06'0 0.0
2014-Dec-11 22:33N 29°46' W 095°06'0 0.0
2014-Dec-11 21:33N 29°46' W 095°06'0 0.0
2014-Dec-11 20:33N 29°46' W 095°06'0 0.0
2014-Dec-11 19:33N 29°46' W 095°06'0 0.0
2014-Dec-11 18:33N 29°46' W 095°06'0 0.0
2014-Dec-11 17:33N 29°46' W 095°06'0 0.0
2014-Dec-11 16:33N 29°46' W 095°06'0 0.1
2014-Dec-11 15:34N 29°46' W 095°06'0 0.0
2014-Dec-11 14:33N 29°46' W 095°06'0 0.0
2014-Dec-11 13:33N 29°46' W 095°06'0 0.0
2014-Dec-11 12:33N 29°46' W 095°06'0 0.0
2014-Dec-11 11:33N 29°46' W 095°06'0 0.0
2014-Dec-11 10:33N 29°46' W 095°06'0 0.0
2014-Dec-11 09:33N 29°46' W 095°06'0 0.0
2014-Dec-11 08:33N 29°46' W 095°06'1 0.5
2014-Dec-11 07:34N 29°46' W 095°06'2 2.2
2014-Dec-11 06:33N 29°47' W 095°04'0 0.0
2014-Dec-11 05:34N 29°47' W 095°04'0 0.3
2014-Dec-11 04:33N 29°47' W 095°04'0 0.0
2014-Dec-11 03:33N 29°47' W 095°04'2 1.9
2014-Dec-11 02:33N 29°45' W 095°04'8 7.6
2014-Dec-11 01:33N 29°39' W 094°58'9 8.9
2014-Dec-11 00:34N 29°32' W 094°53'11 4.9
2014-Dec-10 22:25N 29°25' W 094°44'4 3.5
2014-Dec-10 21:19N 29°27' W 094°41'5 4.7
2014-Dec-10 20:10N 29°29' W 094°35'5 4.9
2014-Dec-10 19:10N 29°31' W 094°30'12 4.4
2014-Dec-10 16:25N 29°38' W 094°18'  
Track history (hours):
 
Tides and Currents Weather Stations Pressure Air Temp Water Temp Dewpoint Dewpoint Depression Visibility Wind Speed Wind Dir Waves Ship Positions

Wes Sellars

Owner: Florida Marine, LLC, Mandeville, LA. More information available from US FCC via Universal Licensing System and Coast Guard Vessel Documentation Center.

Last reported at 2014-Dec-19 01:33 UTC. Time now 2014-Dec-19 13:00 UTC.
Position N 29°46' W 095°07'.

Length 27 m.

Type: Towing. MMSI: 367503760.

Date/timePositionNaut miles runAvg speedWind from/ knotsBaromVisibWave heightAir tempDewpointWater temp
2014-Dec-19 01:33N 29°46' W 095°07'2 1.8
2014-Dec-19 00:33N 29°46' W 095°05'1 0.8
2014-Dec-18 23:12N 29°47' W 095°04'0 0.0
2014-Dec-18 22:31N 29°47' W 095°04'0 0.0
2014-Dec-18 21:33N 29°47' W 095°04'3 2.7
2014-Dec-18 20:29N 29°46' W 095°07'0 0.0
2014-Dec-18 18:32N 29°46' W 095°07'0 0.1
2014-Dec-18 16:18N 29°46' W 095°07'0 0.0
2014-Dec-18 15:33N 29°46' W 095°07'0 0.0
2014-Dec-18 14:33N 29°46' W 095°07'0 0.0
2014-Dec-18 01:32N 29°46' W 095°07'0 0.0
2014-Dec-17 22:29N 29°46' W 095°07'0 0.0
2014-Dec-17 18:32N 29°46' W 095°07'3 3.1
2014-Dec-17 17:33N 29°47' W 095°04'3 2.8
2014-Dec-17 16:32N 29°46' W 095°06'1 0.5
2014-Dec-17 15:33N 29°46' W 095°07'0 0.0
2014-Dec-17 14:33N 29°46' W 095°07'0 0.5
2014-Dec-17 13:32N 29°46' W 095°06'0 0.0
2014-Dec-17 09:22N 29°46' W 095°06'0 0.0
2014-Dec-17 07:33N 29°46' W 095°06'1 0.5
2014-Dec-17 06:27N 29°45' W 095°06'2 1.2
2014-Dec-17 04:33N 29°47' W 095°04'1 0.8
2014-Dec-17 03:33N 29°47' W 095°05'6 5.6
2014-Dec-17 02:32N 29°45' W 095°11'1 0.2
2014-Dec-16 20:09N 29°44' W 095°12'0 0.1
2014-Dec-16 19:33N 29°44' W 095°12'0 0.0
2014-Dec-16 18:33N 29°44' W 095°12'0 0.0
2014-Dec-16 17:33N 29°44' W 095°12'0 0.1
2014-Dec-16 16:33N 29°44' W 095°12'0 0.0
2014-Dec-16 15:33N 29°44' W 095°12'0 0.0
2014-Dec-16 14:33N 29°44' W 095°12'0 0.1
2014-Dec-16 13:33N 29°44' W 095°12'0 0.0
2014-Dec-16 12:33N 29°44' W 095°12'0 0.0
2014-Dec-16 11:33N 29°44' W 095°12'0 0.0
2014-Dec-16 10:33N 29°44' W 095°12'0 0.0
2014-Dec-16 09:33N 29°44' W 095°12'0 0.0
2014-Dec-16 08:33N 29°44' W 095°12'0 0.0
2014-Dec-16 07:33N 29°44' W 095°12'0 0.0
2014-Dec-16 06:33N 29°44' W 095°12'0 0.0
2014-Dec-16 05:33N 29°44' W 095°12'0 0.0
2014-Dec-16 04:33N 29°44' W 095°12'0 0.0
2014-Dec-16 03:33N 29°44' W 095°12'0 0.0
2014-Dec-16 02:33N 29°44' W 095°12'0 0.0
2014-Dec-16 01:33N 29°44' W 095°12'0 0.0
2014-Dec-16 00:32N 29°44' W 095°12'0 0.0
2014-Dec-15 23:33N 29°44' W 095°12'0 0.0
2014-Dec-15 22:33N 29°44' W 095°12'0 0.0
2014-Dec-15 21:33N 29°44' W 095°12'0 0.0
2014-Dec-15 20:33N 29°44' W 095°12'0 0.0
2014-Dec-15 19:33N 29°44' W 095°12'0 0.0
2014-Dec-15 18:33N 29°44' W 095°12'0 0.0
2014-Dec-15 17:33N 29°44' W 095°12'0 0.0
2014-Dec-15 16:33N 29°44' W 095°12'0 0.0
2014-Dec-15 15:33N 29°44' W 095°12'0 0.0
2014-Dec-15 14:33N 29°44' W 095°12'0 0.0
2014-Dec-13 17:33N 29°44' W 095°12'0 0.0
2014-Dec-13 16:33N 29°44' W 095°12'0 0.0
2014-Dec-13 15:33N 29°44' W 095°12'3 3.2
2014-Dec-13 14:33N 29°44' W 095°08'5 5.0
2014-Dec-13 13:33N 29°47' W 095°04'0 0.2
2014-Dec-13 12:33N 29°47' W 095°04'0 0.3
2014-Dec-13 11:33N 29°47' W 095°04'2 2.0
2014-Dec-13 10:33N 29°46' W 095°06'0 0.0
2014-Dec-13 09:33N 29°46' W 095°06'0 0.0
2014-Dec-13 08:33N 29°46' W 095°06'0 0.0
2014-Dec-13 07:33N 29°46' W 095°06'0 0.0
2014-Dec-13 06:33N 29°46' W 095°06'0 0.0
2014-Dec-13 05:33N 29°46' W 095°06'0 0.0
2014-Dec-13 04:33N 29°46' W 095°06'0 0.0
2014-Dec-13 03:33N 29°46' W 095°06'0 0.0
2014-Dec-13 02:33N 29°46' W 095°06'0 0.0
2014-Dec-13 01:33N 29°46' W 095°06'0 0.0
2014-Dec-13 00:33N 29°46' W 095°06'0 0.0
2014-Dec-12 23:33N 29°46' W 095°06'0 0.0
2014-Dec-12 22:33N 29°46' W 095°06'0 0.0
2014-Dec-12 21:33N 29°46' W 095°06'0 0.0
2014-Dec-12 20:33N 29°46' W 095°06'0 0.0
2014-Dec-12 19:33N 29°46' W 095°06'0 0.0
2014-Dec-12 18:33N 29°46' W 095°06'0 0.0
2014-Dec-12 17:33N 29°46' W 095°06'0 0.0
2014-Dec-12 16:33N 29°46' W 095°06'0 0.0
2014-Dec-12 15:33N 29°46' W 095°06'0 0.0
2014-Dec-12 14:33N 29°46' W 095°06'0 0.0
2014-Dec-12 13:33N 29°46' W 095°06'0 0.0
2014-Dec-12 12:33N 29°46' W 095°06'0 0.0
2014-Dec-12 11:33N 29°46' W 095°06'0 0.0
2014-Dec-12 10:33N 29°46' W 095°06'0 0.0
2014-Dec-12 09:33N 29°46' W 095°06'0 0.0
2014-Dec-12 08:33N 29°46' W 095°06'0 0.0
2014-Dec-12 07:33N 29°46' W 095°06'0 0.0
2014-Dec-12 06:33N 29°46' W 095°06'0 0.0
2014-Dec-12 05:33N 29°46' W 095°06'0 0.0
2014-Dec-12 04:33N 29°46' W 095°06'0 0.0
2014-Dec-12 03:33N 29°46' W 095°06'0 0.0
2014-Dec-12 02:33N 29°46' W 095°06'0 0.0
2014-Dec-12 01:33N 29°46' W 095°06'0 0.0
2014-Dec-12 00:33N 29°46' W 095°06'0 0.0
2014-Dec-11 23:33N 29°46' W 095°06'0 0.0
2014-Dec-11 22:33N 29°46' W 095°06'0 0.0
2014-Dec-11 21:33N 29°46' W 095°06'0 0.0
2014-Dec-11 20:33N 29°46' W 095°06'0 0.0
2014-Dec-11 19:33N 29°46' W 095°06'0 0.0
2014-Dec-11 18:33N 29°46' W 095°06'0 0.0
2014-Dec-11 17:33N 29°46' W 095°06'0 0.0
2014-Dec-11 16:33N 29°46' W 095°06'0 0.1
2014-Dec-11 15:34N 29°46' W 095°06'0 0.0
2014-Dec-11 14:33N 29°46' W 095°06'0 0.0
2014-Dec-11 13:33N 29°46' W 095°06'0 0.0
2014-Dec-11 12:33N 29°46' W 095°06'0 0.0
2014-Dec-11 11:33N 29°46' W 095°06'0 0.0
2014-Dec-11 10:33N 29°46' W 095°06'0 0.0
2014-Dec-11 09:33N 29°46' W 095°06'0 0.0
2014-Dec-11 08:33N 29°46' W 095°06'1 0.5
2014-Dec-11 07:34N 29°46' W 095°06'2 2.2
2014-Dec-11 06:33N 29°47' W 095°04'0 0.0
2014-Dec-11 05:34N 29°47' W 095°04'0 0.3
2014-Dec-11 04:33N 29°47' W 095°04'0 0.0
2014-Dec-11 03:33N 29°47' W 095°04'2 1.9
2014-Dec-11 02:33N 29°45' W 095°04'8 7.6
2014-Dec-11 01:33N 29°39' W 094°58'9 8.9
2014-Dec-11 00:34N 29°32' W 094°53'11 4.9
2014-Dec-10 22:25N 29°25' W 094°44'4 3.5
2014-Dec-10 21:19N 29°27' W 094°41'5 4.7
2014-Dec-10 20:10N 29°29' W 094°35'5 4.9
2014-Dec-10 19:10N 29°31' W 094°30'12 4.4
2014-Dec-10 16:25N 29°38' W 094°18'  

Dump ship's entire track history